Time;durP1;ratioP1;P1;durP2;ratioP2;P2;SDS_P1;SDS_P2;PMS_P1;PMS_P2;Temp;Humidity;BMP_temperature;BMP_pressure;BME280_temperature;BME280_humidity;BME280_pressure;Samples;Min_cycle;Max_cycle;Signal;HPM_P1;HPM_P2
2022/04/11 00:00:36;;;;;;;1481.77;999.90;;;;;;;;;;5065435;28;20282;-73
2022/04/11 00:03:01;;;;;;;1544.73;999.90;;;;;;;;;;5064970;28;20043;-72
2022/04/11 00:05:26;;;;;;;1557.83;999.90;;;;;;;;;;5064741;28;20271;-73
2022/04/11 00:07:51;;;;;;;1589.27;999.90;;;;;;;;;;5065107;28;20283;-73
2022/04/11 00:10:17;;;;;;;1493.30;999.90;;;;;;;;;;5067398;28;20281;-73
2022/04/11 00:12:42;;;;;;;1612.97;999.90;;;;;;;;;;5048248;28;20290;-73
2022/04/11 00:15:07;;;;;;;1659.53;999.90;;;;;;;;;;5066365;28;20064;-73
2022/04/11 00:17:33;;;;;;;1647.55;999.90;;;;;;;;;;5066416;28;20825;-73
2022/04/11 00:19:58;;;;;;;1648.93;999.90;;;;;;;;;;5063657;28;20490;-72
2022/04/11 00:22:23;;;;;;;1667.87;999.90;;;;;;;;;;5048053;28;20036;-72
2022/04/11 00:24:49;;;;;;;1571.83;999.90;;;;;;;;;;5064903;28;20259;-72
2022/04/11 00:27:14;;;;;;;1592.32;999.90;;;;;;;;;;5064839;28;20844;-72
2022/04/11 00:29:39;;;;;;;1580.57;999.90;;;;;;;;;;5064966;28;20025;-73
2022/04/11 00:32:05;;;;;;;1553.82;999.90;;;;;;;;;;5048456;28;20267;-73
2022/04/11 00:34:30;;;;;;;1525.70;999.90;;;;;;;;;;5071435;28;20032;-73
2022/04/11 00:36:55;;;;;;;1538.77;999.90;;;;;;;;;;5074217;28;20464;-73
2022/04/11 00:39:20;;;;;;;1531.00;999.90;;;;;;;;;;5065582;28;20360;-73
2022/04/11 00:41:45;;;;;;;1527.50;999.90;;;;;;;;;;5067973;28;20270;-73
2022/04/11 00:44:11;;;;;;;1523.65;999.90;;;;;;;;;;5067897;28;20627;-73
2022/04/11 00:46:36;;;;;;;1515.20;999.90;;;;;;;;;;5068386;28;20866;-73
2022/04/11 00:49:01;;;;;;;1520.47;999.90;;;;;;;;;;5068325;28;20805;-73
2022/04/11 00:51:26;;;;;;;1524.57;999.90;;;;;;;;;;5067782;28;20124;-73
2022/04/11 00:53:52;;;;;;;1520.28;999.90;;;;;;;;;;5069399;28;20298;-73
2022/04/11 00:56:17;;;;;;;1527.18;999.90;;;;;;;;;;5082963;28;20112;-72
2022/04/11 00:58:43;;;;;;;1531.00;999.90;;;;;;;;;;5067512;28;20040;-72
2022/04/11 01:01:08;;;;;;;1574.27;999.90;;;;;;;;;;5067531;28;20059;-72
2022/04/11 01:03:33;;;;;;;1537.18;999.90;;;;;;;;;;5067122;28;20393;-72
2022/04/11 01:05:59;;;;;;;1508.00;999.90;;;;;;;;;;5049261;28;20029;-73
2022/04/11 01:08:24;;;;;;;1536.60;999.90;;;;;;;;;;5067701;28;20094;-73
2022/04/11 01:10:49;;;;;;;1528.27;999.90;;;;;;;;;;5049494;28;20113;-73
2022/04/11 01:13:15;;;;;;;1526.57;999.90;;;;;;;;;;5067056;28;20724;-73
2022/04/11 01:15:40;;;;;;;1537.75;999.90;;;;;;;;;;5070839;28;20461;-73
2022/04/11 01:18:06;;;;;;;1541.43;999.90;;;;;;;;;;5067127;28;20047;-73
2022/04/11 01:20:31;;;;;;;1541.97;999.90;;;;;;;;;;5067194;28;20427;-73
2022/04/11 01:22:56;;;;;;;1533.90;999.90;;;;;;;;;;5067400;28;20036;-73
2022/04/11 01:25:21;;;;;;;1533.77;999.90;;;;;;;;;;5067279;28;20454;-73
2022/04/11 01:27:46;;;;;;;1536.38;999.90;;;;;;;;;;5066713;28;21018;-73
2022/04/11 01:30:12;;;;;;;1534.17;999.90;;;;;;;;;;5067250;28;20086;-73
2022/04/11 01:32:38;;;;;;;1532.78;999.90;;;;;;;;;;5067148;28;20287;-73
2022/04/11 01:35:03;;;;;;;1532.60;999.90;;;;;;;;;;5048409;28;20435;-73
2022/04/11 01:37:28;;;;;;;1526.00;999.90;;;;;;;;;;5066673;28;20090;-72
2022/04/11 01:39:53;;;;;;;1522.33;999.90;;;;;;;;;;5066899;28;20052;-73
2022/04/11 01:42:19;;;;;;;1515.70;999.90;;;;;;;;;;5066653;28;20335;-72
2022/04/11 01:44:44;;;;;;;1533.43;999.90;;;;;;;;;;5066867;28;20032;-72
2022/04/11 01:47:09;;;;;;;1532.30;999.90;;;;;;;;;;5066964;28;20024;-72
2022/04/11 01:49:34;;;;;;;1515.60;999.90;;;;;;;;;;5066844;28;20103;-73
2022/04/11 01:52:00;;;;;;;1522.07;999.90;;;;;;;;;;5066453;28;20349;-72
2022/04/11 01:54:25;;;;;;;1522.83;999.90;;;;;;;;;;5072660;28;20765;-73
2022/04/11 01:56:50;;;;;;;1515.53;999.90;;;;;;;;;;5077534;28;20862;-73
2022/04/11 01:59:16;;;;;;;1518.00;999.90;;;;;;;;;;5066812;28;20191;-73
2022/04/11 02:01:42;;;;;;;1523.60;999.90;;;;;;;;;;5066927;28;20066;-72
2022/04/11 02:04:07;;;;;;;1520.45;999.90;;;;;;;;;;5066046;28;20570;-73
2022/04/11 02:06:32;;;;;;;1514.83;999.90;;;;;;;;;;5066547;28;20089;-72
2022/04/11 02:08:57;;;;;;;1511.03;999.90;;;;;;;;;;5066589;28;20370;-73
2022/04/11 02:11:22;;;;;;;1506.75;999.90;;;;;;;;;;5066740;28;20379;-72
2022/04/11 02:13:48;;;;;;;1522.10;999.90;;;;;;;;;;5066240;28;20315;-73
2022/04/11 02:16:13;;;;;;;1514.88;999.90;;;;;;;;;;5063888;28;20302;-73
2022/04/11 02:18:38;;;;;;;1516.30;999.90;;;;;;;;;;5066344;28;20036;-72
2022/04/11 02:21:03;;;;;;;1527.33;999.90;;;;;;;;;;5065998;28;20376;-73
2022/04/11 02:23:28;;;;;;;1519.17;999.90;;;;;;;;;;5065986;28;20332;-73
2022/04/11 02:25:54;;;;;;;1507.45;999.90;;;;;;;;;;5066430;28;20861;-72
2022/04/11 02:28:20;;;;;;;1523.20;999.90;;;;;;;;;;5066145;28;20031;-73
2022/04/11 02:30:46;;;;;;;1530.55;999.90;;;;;;;;;;5065767;28;19916;-73
2022/04/11 02:33:11;;;;;;;1547.30;999.90;;;;;;;;;;5066033;28;20036;-73
2022/04/11 02:35:36;;;;;;;1527.60;999.90;;;;;;;;;;5081454;28;20093;-72
2022/04/11 02:38:02;;;;;;;1533.18;999.90;;;;;;;;;;5067209;28;20065;-72
2022/04/11 02:40:27;;;;;;;1538.30;999.90;;;;;;;;;;5066100;28;20024;-72
2022/04/11 02:42:52;;;;;;;1528.78;999.90;;;;;;;;;;5065440;28;20571;-73
2022/04/11 02:45:17;;;;;;;1528.83;999.90;;;;;;;;;;5065902;28;20491;-73
2022/04/11 02:47:43;;;;;;;1531.55;999.90;;;;;;;;;;5066034;28;20854;-73
2022/04/11 02:50:08;;;;;;;1530.22;999.90;;;;;;;;;;5065437;28;20146;-73
2022/04/11 02:52:33;;;;;;;1532.60;999.90;;;;;;;;;;5065691;28;20058;-73
2022/04/11 02:54:59;;;;;;;1533.10;999.90;;;;;;;;;;5075951;28;20477;-73
2022/04/11 02:57:24;;;;;;;1530.83;999.90;;;;;;;;;;5071428;28;20006;-73
2022/04/11 02:59:49;;;;;;;1528.63;999.90;;;;;;;;;;5065794;28;20350;-72
2022/04/11 03:02:15;;;;;;;1512.75;999.90;;;;;;;;;;5065093;28;20032;-72
2022/04/11 03:04:40;;;;;;;1519.87;999.90;;;;;;;;;;5047242;28;19916;-72
2022/04/11 03:07:05;;;;;;;1521.90;999.90;;;;;;;;;;5065342;28;20270;-72
2022/04/11 03:09:30;;;;;;;1515.95;999.90;;;;;;;;;;5065659;28;20446;-72
2022/04/11 03:11:56;;;;;;;1524.35;999.90;;;;;;;;;;5065167;28;20798;-72
2022/04/11 03:14:22;;;;;;;1522.70;999.90;;;;;;;;;;5068612;28;20526;-73
2022/04/11 03:16:47;;;;;;;1525.22;999.90;;;;;;;;;;5064907;28;20039;-72
2022/04/11 03:19:13;;;;;;;1530.70;999.90;;;;;;;;;;5065446;28;20024;-72
2022/04/11 03:21:38;;;;;;;1527.65;999.90;;;;;;;;;;5065305;28;20318;-73
2022/04/11 03:24:03;;;;;;;1531.93;999.90;;;;;;;;;;5065173;28;20107;-72
2022/04/11 03:26:29;;;;;;;1534.25;999.90;;;;;;;;;;5065739;28;20039;-72
2022/04/11 03:28:54;;;;;;;1532.50;999.90;;;;;;;;;;5064933;28;20043;-72
2022/04/11 03:31:19;;;;;;;1532.50;999.90;;;;;;;;;;5065507;28;20237;-72
2022/04/11 03:33:44;;;;;;;1537.50;999.90;;;;;;;;;;5064735;28;20287;-71
2022/04/11 03:36:10;;;;;;;1528.75;999.90;;;;;;;;;;5048530;28;20040;-72
2022/04/11 03:38:35;;;;;;;1529.53;999.90;;;;;;;;;;5065415;28;20408;-72
2022/04/11 03:41:00;;;;;;;1527.80;999.90;;;;;;;;;;5065235;28;20670;-72
2022/04/11 03:43:25;;;;;;;1525.73;999.90;;;;;;;;;;5064195;28;20516;-73
2022/04/11 03:45:51;;;;;;;1528.20;999.90;;;;;;;;;;5064873;28;20777;-73
2022/04/11 03:48:16;;;;;;;1530.32;999.90;;;;;;;;;;5064425;28;20295;-73
2022/04/11 03:50:41;;;;;;;1530.55;999.90;;;;;;;;;;5064205;28;20364;-73
2022/04/11 03:53:07;;;;;;;1533.60;999.90;;;;;;;;;;5064435;28;20628;-73
2022/04/11 03:55:32;;;;;;;1528.17;999.90;;;;;;;;;;5062119;28;20286;-73
2022/04/11 03:57:57;;;;;;;1533.30;999.90;;;;;;;;;;5063344;28;20275;-73
2022/04/11 04:00:23;;;;;;;1535.83;999.90;;;;;;;;;;5064593;28;20233;-73
2022/04/11 04:02:49;;;;;;;1532.35;999.90;;;;;;;;;;5062164;28;20024;-73
2022/04/11 04:05:14;;;;;;;1536.93;999.90;;;;;;;;;;5056379;28;20389;-73
2022/04/11 04:07:39;;;;;;;1533.55;999.90;;;;;;;;;;5061998;28;20275;-74
2022/04/11 04:10:05;;;;;;;1529.32;999.90;;;;;;;;;;5065115;28;20409;-73
2022/04/11 04:12:30;;;;;;;1530.05;999.90;;;;;;;;;;5064721;28;20055;-73
2022/04/11 04:14:55;;;;;;;1530.05;999.90;;;;;;;;;;5066024;28;20033;-73
2022/04/11 04:17:20;;;;;;;1537.50;999.90;;;;;;;;;;5068562;28;20132;-74
2022/04/11 04:19:46;;;;;;;1546.30;999.90;;;;;;;;;;5067839;28;20514;-74
2022/04/11 04:22:11;;;;;;;1546.80;999.90;;;;;;;;;;5067853;28;21092;-74
2022/04/11 04:24:36;;;;;;;1536.43;999.90;;;;;;;;;;5047478;28;20830;-73
2022/04/11 04:27:02;;;;;;;1559.93;999.90;;;;;;;;;;5040808;28;20840;-74
2022/04/11 04:29:27;;;;;;;1551.60;999.90;;;;;;;;;;5035238;28;20101;-75
2022/04/11 04:31:54;;;;;;;1548.85;999.90;;;;;;;;;;5065962;28;20432;-75
2022/04/11 04:34:20;;;;;;;1563.47;999.90;;;;;;;;;;5067831;28;20044;-75
2022/04/11 04:36:45;;;;;;;1551.57;999.90;;;;;;;;;;5068533;28;20045;-74
2022/04/11 04:39:11;;;;;;;1552.47;999.90;;;;;;;;;;5068326;28;20032;-76
2022/04/11 04:41:36;;;;;;;1558.30;999.90;;;;;;;;;;5067961;28;20274;-76
2022/04/11 04:44:01;;;;;;;1557.00;999.90;;;;;;;;;;5066893;28;20271;-74
2022/04/11 04:46:26;;;;;;;1552.97;999.90;;;;;;;;;;5056074;28;20286;-77
2022/04/11 04:48:51;;;;;;;1562.75;999.90;;;;;;;;;;5056384;28;20128;-76
2022/04/11 04:51:18;;;;;;;1564.25;999.90;;;;;;;;;;5050092;28;20045;-76
2022/04/11 04:53:43;;;;;;;1565.50;999.90;;;;;;;;;;5032392;28;20237;-77
2022/04/11 04:56:08;;;;;;;1561.43;999.90;;;;;;;;;;5049228;28;20476;-76
2022/04/11 04:58:33;;;;;;;1555.17;999.90;;;;;;;;;;5067331;28;20028;-78
2022/04/11 05:00:59;;;;;;;1561.10;999.90;;;;;;;;;;5047636;28;20270;-78
2022/04/11 05:03:24;;;;;;;1562.43;999.90;;;;;;;;;;5067534;28;20282;-77
2022/04/11 05:05:49;;;;;;;1553.10;999.90;;;;;;;;;;5067624;28;20527;-76
2022/04/11 05:08:14;;;;;;;1558.53;999.90;;;;;;;;;;5058467;28;20547;-76
2022/04/11 05:10:39;;;;;;;1564.70;999.90;;;;;;;;;;5050591;28;20838;-76
2022/04/11 05:13:05;;;;;;;1560.75;999.90;;;;;;;;;;5064017;28;20029;-75
2022/04/11 05:15:30;;;;;;;1557.03;999.90;;;;;;;;;;5060104;28;20032;-74
2022/04/11 05:17:55;;;;;;;1559.65;999.90;;;;;;;;;;5056370;28;20290;-73
2022/04/11 05:20:21;;;;;;;1555.65;999.90;;;;;;;;;;5048534;28;21139;-74
2022/04/11 05:22:46;;;;;;;1552.57;999.90;;;;;;;;;;5055133;28;20037;-76
2022/04/11 05:25:11;;;;;;;1548.25;999.90;;;;;;;;;;5057796;28;20035;-74
2022/04/11 05:27:36;;;;;;;1550.27;999.90;;;;;;;;;;5056761;28;20025;-73
2022/04/11 05:30:05;;;;;;;1551.60;999.90;;;;;;;;;;5065543;28;20267;-73
2022/04/11 05:32:30;;;;;;;1551.05;999.90;;;;;;;;;;5036834;28;20294;-74
2022/04/11 05:34:56;;;;;;;1559.28;999.90;;;;;;;;;;5063608;28;20496;-73
2022/04/11 05:37:21;;;;;;;1562.37;999.90;;;;;;;;;;5028743;28;20406;-72
2022/04/11 05:39:46;;;;;;;1560.57;999.90;;;;;;;;;;5037390;28;20500;-73
2022/04/11 05:42:11;;;;;;;1554.57;999.90;;;;;;;;;;5047327;28;20865;-72
2022/04/11 05:44:37;;;;;;;1558.47;999.90;;;;;;;;;;5046321;28;20995;-74
2022/04/11 05:47:02;;;;;;;1554.72;999.90;;;;;;;;;;5029389;28;20264;-76
2022/04/11 05:49:27;;;;;;;1557.85;999.90;;;;;;;;;;5046709;28;20438;-74
2022/04/11 05:51:52;;;;;;;1554.10;999.90;;;;;;;;;;5047098;28;20146;-74
2022/04/11 05:54:18;;;;;;;1548.57;999.90;;;;;;;;;;5046911;28;20318;-74
2022/04/11 05:56:43;;;;;;;1557.90;999.90;;;;;;;;;;5047034;28;20292;-75
2022/04/11 05:59:08;;;;;;;1552.10;999.90;;;;;;;;;;5046410;28;20260;-75
2022/04/11 06:01:37;;;;;;;1563.40;999.90;;;;;;;;;;5046211;28;20284;-72
2022/04/11 06:04:02;;;;;;;1553.13;999.90;;;;;;;;;;5046014;28;20494;-72
2022/04/11 06:06:27;;;;;;;1547.68;999.90;;;;;;;;;;5041686;28;20385;-73
2022/04/11 06:08:53;;;;;;;1555.03;999.90;;;;;;;;;;5035278;28;20036;-73
2022/04/11 06:11:18;;;;;;;1553.87;999.90;;;;;;;;;;5046655;28;20040;-73
2022/04/11 06:13:45;;;;;;;1550.67;999.90;;;;;;;;;;5045739;28;20279;-74
2022/04/11 06:16:10;;;;;;;1553.30;999.90;;;;;;;;;;5046332;28;20291;-73
2022/04/11 06:18:36;;;;;;;1546.65;999.90;;;;;;;;;;5024751;28;20079;-73
2022/04/11 06:21:01;;;;;;;1555.68;999.90;;;;;;;;;;5036342;28;20068;-73
2022/04/11 06:23:26;;;;;;;1551.80;999.90;;;;;;;;;;5048291;28;20063;-73
2022/04/11 06:25:51;;;;;;;1548.70;999.90;;;;;;;;;;5047750;28;20702;-72
2022/04/11 06:28:16;;;;;;;1551.57;999.90;;;;;;;;;;5047005;28;20370;-73
2022/04/11 06:30:42;;;;;;;1549.53;999.90;;;;;;;;;;5046986;28;20355;-76
2022/04/11 06:33:07;;;;;;;1550.97;999.90;;;;;;;;;;5047061;28;20362;-72
2022/04/11 06:35:32;;;;;;;1544.93;999.90;;;;;;;;;;5045855;28;20310;-73
2022/04/11 06:37:57;;;;;;;1550.43;999.90;;;;;;;;;;5045289;28;20334;-72
2022/04/11 06:40:22;;;;;;;1552.97;999.90;;;;;;;;;;5043850;28;20411;-76
2022/04/11 06:42:48;;;;;;;1547.57;999.90;;;;;;;;;;5025825;28;20835;-76
2022/04/11 06:45:14;;;;;;;1548.40;999.90;;;;;;;;;;5027283;28;20086;-77
2022/04/11 06:47:39;;;;;;;1554.68;999.90;;;;;;;;;;5044875;28;20386;-75
2022/04/11 06:50:05;;;;;;;1548.28;999.90;;;;;;;;;;5045162;28;20510;-77
2022/04/11 06:52:30;;;;;;;1552.57;999.90;;;;;;;;;;5045595;28;20427;-77
2022/04/11 06:54:56;;;;;;;1541.30;999.90;;;;;;;;;;5045072;28;20108;-76
2022/04/11 06:57:22;;;;;;;1539.95;999.90;;;;;;;;;;5044705;28;20654;-77
2022/04/11 06:59:47;;;;;;;1534.72;999.90;;;;;;;;;;5045865;28;20552;-76
2022/04/11 07:02:12;;;;;;;1534.40;999.90;;;;;;;;;;5045800;28;20033;-76
2022/04/11 07:04:38;;;;;;;1525.27;999.90;;;;;;;;;;5045544;28;20108;-76
2022/04/11 07:07:03;;;;;;;1532.75;999.90;;;;;;;;;;5045513;28;20324;-77
2022/04/11 07:09:31;;;;;;;1527.90;999.90;;;;;;;;;;5045598;28;20237;-76
2022/04/11 07:11:56;;;;;;;1538.22;999.90;;;;;;;;;;5045693;28;20114;-77
2022/04/11 07:14:21;;;;;;;1545.80;999.90;;;;;;;;;;5043641;28;20033;-76
2022/04/11 07:16:48;;;;;;;1548.50;999.90;;;;;;;;;;5043697;28;20053;-75
2022/04/11 07:19:14;;;;;;;1549.40;999.90;;;;;;;;;;5045121;28;20263;-76
2022/04/11 07:21:39;;;;;;;1548.13;999.90;;;;;;;;;;5036942;28;20486;-77
2022/04/11 07:24:04;;;;;;;1549.15;999.90;;;;;;;;;;5052487;28;20788;-77
2022/04/11 07:26:29;;;;;;;1545.07;999.90;;;;;;;;;;5044969;28;20032;-77
2022/04/11 07:28:55;;;;;;;1545.43;999.90;;;;;;;;;;5052408;28;20029;-77
2022/04/11 07:31:20;;;;;;;1549.47;999.90;;;;;;;;;;5054315;28;20275;-77
2022/04/11 07:33:47;;;;;;;1556.60;999.90;;;;;;;;;;5045119;28;20549;-77
2022/04/11 07:36:12;;;;;;;1548.97;999.90;;;;;;;;;;5045110;28;20771;-76
2022/04/11 07:38:38;;;;;;;1542.60;999.90;;;;;;;;;;5027379;28;20021;-77
2022/04/11 07:41:03;;;;;;;1545.43;999.90;;;;;;;;;;5045288;28;20808;-77
2022/04/11 07:43:28;;;;;;;1545.77;999.90;;;;;;;;;;5044170;28;20713;-77
2022/04/11 07:45:53;;;;;;;1551.70;999.90;;;;;;;;;;5044539;28;20381;-75
2022/04/11 07:48:18;;;;;;;1543.20;999.90;;;;;;;;;;5028178;28;20299;-78
2022/04/11 07:50:44;;;;;;;1546.03;999.90;;;;;;;;;;5031437;28;20025;-76
2022/04/11 07:53:09;;;;;;;1539.87;999.90;;;;;;;;;;5049535;28;20245;-77
2022/04/11 07:55:34;;;;;;;1543.10;999.90;;;;;;;;;;5049726;28;20272;-76
2022/04/11 07:57:59;;;;;;;1544.45;999.90;;;;;;;;;;5049251;28;20302;-77
2022/04/11 08:00:25;;;;;;;1544.03;999.90;;;;;;;;;;5048818;28;20025;-76
2022/04/11 08:02:53;;;;;;;1540.88;999.90;;;;;;;;;;5049166;28;20035;-77
2022/04/11 08:05:19;;;;;;;1540.93;999.90;;;;;;;;;;5030940;28;20499;-77
2022/04/11 08:07:45;;;;;;;1534.28;999.90;;;;;;;;;;5031197;28;20060;-76
2022/04/11 08:10:10;;;;;;;1541.30;999.90;;;;;;;;;;5014292;28;20083;-76
2022/04/11 08:12:36;;;;;;;1539.05;999.90;;;;;;;;;;5049098;28;20083;-76
2022/04/11 08:15:01;;;;;;;1539.18;999.90;;;;;;;;;;5030778;28;20450;-77
2022/04/11 08:17:26;;;;;;;1538.38;999.90;;;;;;;;;;5048839;28;20033;-77
2022/04/11 08:19:52;;;;;;;1533.55;999.90;;;;;;;;;;5030307;28;20051;-77
2022/04/11 08:22:17;;;;;;;1530.50;999.90;;;;;;;;;;5047518;28;20052;-76
2022/04/11 08:24:42;;;;;;;1537.23;999.90;;;;;;;;;;5048370;28;20359;-75
2022/04/11 08:27:07;;;;;;;1542.13;999.90;;;;;;;;;;5046880;28;20367;-77
2022/04/11 08:29:33;;;;;;;1541.20;999.90;;;;;;;;;;5047169;28;20303;-74
2022/04/11 08:31:58;;;;;;;1544.32;999.90;;;;;;;;;;5044711;28;20065;-77
2022/04/11 08:34:23;;;;;;;1550.10;999.90;;;;;;;;;;5047338;28;20028;-76
2022/04/11 08:36:48;;;;;;;1540.67;999.90;;;;;;;;;;5048305;28;20291;-76
2022/04/11 08:39:14;;;;;;;1545.55;999.90;;;;;;;;;;5047334;28;20268;-76
2022/04/11 08:41:39;;;;;;;1549.05;999.90;;;;;;;;;;5043295;28;20512;-76
2022/04/11 08:44:05;;;;;;;1551.15;999.90;;;;;;;;;;5046414;28;20029;-75
2022/04/11 08:46:30;;;;;;;1541.63;999.90;;;;;;;;;;5047946;28;20567;-75
2022/04/11 08:48:55;;;;;;;1543.28;999.90;;;;;;;;;;5056075;28;20404;-76
2022/04/11 08:51:21;;;;;;;1544.20;999.90;;;;;;;;;;5039476;28;20064;-76
2022/04/11 08:53:47;;;;;;;1542.95;999.90;;;;;;;;;;5047828;28;20290;-76
2022/04/11 08:56:12;;;;;;;1544.70;999.90;;;;;;;;;;5028880;28;20505;-75
2022/04/11 08:58:37;;;;;;;1539.88;999.90;;;;;;;;;;5046947;28;20079;-76
2022/04/11 09:01:02;;;;;;;1543.77;999.90;;;;;;;;;;5041760;28;20561;-75
2022/04/11 09:03:28;;;;;;;1544.55;999.90;;;;;;;;;;5045348;28;20315;-76
2022/04/11 09:06:06;;;;;;;1538.47;999.90;;;;;;;;;;5029568;28;20079;-75
2022/04/11 09:08:46;;;;;;;1539.95;999.90;;;;;;;;;;5032482;28;20326;-77
2022/04/11 09:11:12;;;;;;;1543.75;999.90;;;;;;;;;;5059377;28;20068;-75
2022/04/11 09:13:48;;;;;;;1544.82;999.90;;;;;;;;;;5051422;28;20049;-77
2022/04/11 09:16:14;;;;;;;1539.68;999.90;;;;;;;;;;5046430;28;20043;-77
2022/04/11 09:18:49;;;;;;;1537.97;999.90;;;;;;;;;;5047870;28;20025;-77
2022/04/11 09:21:14;;;;;;;1545.68;999.90;;;;;;;;;;5047511;28;20566;-77
2022/04/11 09:23:40;;;;;;;1546.85;999.90;;;;;;;;;;5047691;28;20049;-74
2022/04/11 09:26:18;;;;;;;1539.53;999.90;;;;;;;;;;5029021;28;20049;-73
2022/04/11 09:28:43;;;;;;;1536.90;999.90;;;;;;;;;;5042735;28;20283;-72
2022/04/11 09:31:09;;;;;;;1543.88;999.90;;;;;;;;;;5047654;28;20028;-74
2022/04/11 09:33:38;;;;;;;1540.38;999.90;;;;;;;;;;5047004;28;20353;-74
2022/04/11 09:36:04;;;;;;;1537.28;999.90;;;;;;;;;;5048113;28;20044;-74
2022/04/11 09:38:29;;;;;;;1535.03;999.90;;;;;;;;;;5048876;28;20033;-74
2022/04/11 09:40:56;;;;;;;1541.35;999.90;;;;;;;;;;5029912;28;20486;-74
2022/04/11 09:43:25;;;;;;;1545.20;999.90;;;;;;;;;;5041570;28;20109;-74
2022/04/11 09:45:51;;;;;;;1543.68;999.90;;;;;;;;;;5047415;28;20040;-74
2022/04/11 09:48:21;;;;;;;1534.57;999.90;;;;;;;;;;5035602;28;20048;-76
2022/04/11 09:50:47;;;;;;;1541.57;999.90;;;;;;;;;;5009687;28;20106;-75
2022/04/11 09:53:13;;;;;;;1541.85;999.90;;;;;;;;;;5027366;28;20756;-76
2022/04/11 09:55:38;;;;;;;1537.10;999.90;;;;;;;;;;5041266;28;20542;-76
2022/04/11 09:58:04;;;;;;;1535.70;999.90;;;;;;;;;;5044869;28;20063;-77
2022/04/11 10:00:30;;;;;;;1567.22;999.90;;;;;;;;;;5035275;28;20056;-77
2022/04/11 10:02:59;;;;;;;1582.85;999.90;;;;;;;;;;5020607;28;20025;-76
2022/04/11 10:05:25;;;;;;;1566.88;999.90;;;;;;;;;;5023971;28;20025;-77
2022/04/11 10:07:57;;;;;;;1564.72;999.90;;;;;;;;;;5025807;28;20037;-74
2022/04/11 10:34:47;;;;;;;1556.82;999.90;;;;;;;;;;5025417;28;20148;-79
2022/04/11 10:37:12;;;;;;;1564.35;999.90;;;;;;;;;;5026669;28;20133;-77
2022/04/11 10:39:39;;;;;;;1536.50;999.90;;;;;;;;;;5022422;28;20119;-77
2022/04/11 10:42:09;;;;;;;1566.22;999.90;;;;;;;;;;5024948;28;20084;-77
2022/04/11 10:44:35;;;;;;;1541.47;999.90;;;;;;;;;;5006858;28;20037;-77
2022/04/11 10:47:10;;;;;;;1536.80;999.90;;;;;;;;;;5023553;28;20034;-76
2022/04/11 10:49:44;;;;;;;1554.05;999.90;;;;;;;;;;5025180;28;20026;-78
2022/04/11 10:52:29;;;;;;;1563.57;999.90;;;;;;;;;;5007466;28;20117;-77
2022/04/11 10:54:55;;;;;;;1564.70;999.90;;;;;;;;;;5024593;28;20033;-76
2022/04/11 10:57:33;;;;;;;1577.22;999.90;;;;;;;;;;5024764;28;20037;-76
2022/04/11 11:00:01;;;;;;;1575.43;999.90;;;;;;;;;;5020729;28;20045;-77
2022/04/11 11:02:26;;;;;;;1572.53;999.90;;;;;;;;;;5023010;28;20092;-76
2022/04/11 11:04:52;;;;;;;1566.25;999.90;;;;;;;;;;5024012;28;20029;-77
2022/04/11 11:07:24;;;;;;;1580.10;999.90;;;;;;;;;;5025300;28;20052;-74
2022/04/11 11:09:54;;;;;;;1553.30;999.90;;;;;;;;;;5024930;28;20066;-76
2022/04/11 11:12:19;;;;;;;1558.03;999.90;;;;;;;;;;5007367;28;20068;-77
2022/04/11 11:14:45;;;;;;;1557.90;999.90;;;;;;;;;;5022949;28;20832;-77
2022/04/11 11:17:10;;;;;;;1560.90;999.90;;;;;;;;;;5023205;28;20044;-77
2022/04/11 11:19:55;;;;;;;1559.47;999.90;;;;;;;;;;5006495;28;20392;-77
2022/04/11 11:22:20;;;;;;;1560.55;999.90;;;;;;;;;;5024409;28;20048;-77
2022/04/11 11:25:18;;;;;;;1556.40;999.90;;;;;;;;;;5020414;28;20033;-78
2022/04/11 11:27:44;;;;;;;1549.85;999.90;;;;;;;;;;4975380;28;20038;-77
2022/04/11 11:30:09;;;;;;;1565.75;999.90;;;;;;;;;;5025429;28;20963;-78
2022/04/11 11:32:34;;;;;;;1574.22;999.90;;;;;;;;;;5026157;28;20045;-77
2022/04/11 11:34:59;;;;;;;1571.93;999.90;;;;;;;;;;5006866;28;20575;-77
2022/04/11 11:37:25;;;;;;;1575.97;999.90;;;;;;;;;;5025576;28;21447;-78
2022/04/11 11:39:50;;;;;;;1572.43;999.90;;;;;;;;;;5007885;28;20550;-78
2022/04/11 11:42:15;;;;;;;1567.33;999.90;;;;;;;;;;5026275;28;20280;-79
2022/04/11 11:44:45;;;;;;;1569.45;999.90;;;;;;;;;;5007222;28;20261;-77
2022/04/11 11:47:10;;;;;;;1553.38;999.90;;;;;;;;;;4971664;28;20061;-77
2022/04/11 11:49:45;;;;;;;1573.80;999.90;;;;;;;;;;4974732;28;20504;-76
2022/04/11 11:52:17;;;;;;;1564.93;999.90;;;;;;;;;;5024723;28;20431;-76
2022/04/11 11:54:49;;;;;;;1569.78;999.90;;;;;;;;;;5024330;28;20038;-74
2022/04/11 11:57:17;;;;;;;1570.97;999.90;;;;;;;;;;5021850;28;20037;-78
2022/04/11 11:59:46;;;;;;;1566.93;999.90;;;;;;;;;;5029426;28;20036;-77
2022/04/11 12:04:55;;;;;;;1570.95;999.90;;;;;;;;;;5026744;28;20037;-77
2022/04/11 12:07:21;;;;;;;1568.63;999.90;;;;;;;;;;5006792;28;20042;-78
2022/04/11 12:09:47;;;;;;;1573.47;999.90;;;;;;;;;;5021893;28;20272;-77
2022/04/11 12:12:13;;;;;;;1558.53;999.90;;;;;;;;;;5025876;28;20072;-76
2022/04/11 12:14:57;;;;;;;1564.05;999.90;;;;;;;;;;5025727;28;20081;-77
2022/04/11 12:17:28;;;;;;;1564.53;999.90;;;;;;;;;;5008285;28;20045;-78
2022/04/11 12:19:57;;;;;;;1561.60;999.90;;;;;;;;;;5025138;28;20030;-77
2022/04/11 12:22:23;;;;;;;1546.33;999.90;;;;;;;;;;4990770;28;20026;-77
2022/04/11 12:24:49;;;;;;;1561.00;999.90;;;;;;;;;;5007326;28;20029;-78
2022/04/11 12:27:20;;;;;;;1555.90;999.90;;;;;;;;;;5026090;28;20029;-78
2022/04/11 12:29:46;;;;;;;1562.88;999.90;;;;;;;;;;5025403;28;20057;-78
2022/04/11 13:29:41;;;;;;;1567.20;999.90;;;;;;;;;;5022147;28;20079;-77
2022/04/11 13:32:07;;;;;;;1560.47;999.90;;;;;;;;;;5026669;28;20055;-78
2022/04/11 13:34:32;;;;;;;1566.20;999.90;;;;;;;;;;5027063;28;20037;-77
2022/04/11 13:36:57;;;;;;;1558.93;999.90;;;;;;;;;;5009320;28;20515;-79
2022/04/11 13:39:22;;;;;;;1561.27;999.90;;;;;;;;;;5027430;28;20834;-76
2022/04/11 13:41:48;;;;;;;1561.60;999.90;;;;;;;;;;5026987;28;20816;-78
2022/04/11 13:44:15;;;;;;;1563.60;999.90;;;;;;;;;;5027443;28;20282;-81
2022/04/11 13:46:40;;;;;;;1567.05;999.90;;;;;;;;;;5028383;28;20037;-80
2022/04/11 13:49:05;;;;;;;1557.17;999.90;;;;;;;;;;5027202;28;20493;-77
2022/04/11 13:51:30;;;;;;;1551.22;999.90;;;;;;;;;;5019424;28;21003;-75
2022/04/11 13:53:56;;;;;;;1534.30;999.90;;;;;;;;;;5007594;28;19964;-79
2022/04/11 13:56:21;;;;;;;1560.13;999.90;;;;;;;;;;5025730;28;20291;-76
2022/04/11 13:58:46;;;;;;;1554.50;999.90;;;;;;;;;;5027249;28;20271;-78
2022/04/11 14:01:11;;;;;;;1549.97;999.90;;;;;;;;;;5027763;28;20079;-90
2022/04/11 14:03:37;;;;;;;1531.55;999.90;;;;;;;;;;5014395;28;20041;-86
2022/04/11 14:06:02;;;;;;;1548.40;999.90;;;;;;;;;;5013685;28;20059;-78
2022/04/11 14:08:28;;;;;;;1551.80;999.90;;;;;;;;;;5007681;28;20243;-78
2022/04/11 14:10:53;;;;;;;1533.75;999.90;;;;;;;;;;5026940;28;20664;-79
2022/04/11 14:13:18;;;;;;;1529.45;999.90;;;;;;;;;;5026902;28;20781;-79
2022/04/11 14:15:43;;;;;;;;;;;;;;;;;;5026533;28;20782;-78
2022/04/11 14:18:09;;;;;;;1527.30;999.90;;;;;;;;;;5026822;28;25085;-79
2022/04/11 14:20:34;;;;;;;1526.60;999.90;;;;;;;;;;5026871;28;20038;-79
2022/04/11 14:22:59;;;;;;;1523.75;999.90;;;;;;;;;;5026930;28;20227;-79
2022/04/11 14:25:25;;;;;;;1531.70;999.90;;;;;;;;;;5025989;28;19909;-79
2022/04/11 14:27:50;;;;;;;1522.75;999.90;;;;;;;;;;5026511;28;20665;-78
2022/04/11 14:30:16;;;;;;;1541.90;999.90;;;;;;;;;;5025875;28;20068;-77
2022/04/11 14:32:41;;;;;;;1545.77;999.90;;;;;;;;;;5026500;28;20060;-77
2022/04/11 14:35:06;;;;;;;1543.80;999.90;;;;;;;;;;5026372;28;20540;-78
2022/04/11 14:37:31;;;;;;;1546.45;999.90;;;;;;;;;;5026489;28;20119;-78
2022/04/11 14:39:57;;;;;;;1548.40;999.90;;;;;;;;;;5011206;28;20038;-78
2022/04/11 14:42:22;;;;;;;1548.67;999.90;;;;;;;;;;5023977;28;20341;-79
2022/04/11 14:44:47;;;;;;;1550.97;999.90;;;;;;;;;;5025935;28;20791;-77
2022/04/11 14:47:12;;;;;;;1549.90;999.90;;;;;;;;;;5026116;28;20896;-77
2022/04/11 14:49:38;;;;;;;1553.53;999.90;;;;;;;;;;5026142;28;20294;-77
2022/04/11 14:52:03;;;;;;;1549.75;999.90;;;;;;;;;;5026059;28;20025;-78
2022/04/11 14:54:29;;;;;;;1555.22;999.90;;;;;;;;;;5025913;28;20040;-77
2022/04/11 14:56:54;;;;;;;1548.70;999.90;;;;;;;;;;5025709;28;20033;-78
2022/04/11 14:59:19;;;;;;;1551.17;999.90;;;;;;;;;;5025004;28;20760;-77